ADDS - METARS form results

Aviation Digital Data Service (ADDS)

Output produced by METARs form (0036 UTC 09 March 2021)
found at http://aviationweather.gov/metar/data/
 
METAR text: KJOT 090015Z AUTO 00000KT 10SM BKN090 15/06 A3027 RMK AO2 T01480056
Conditions at: KJOT (JOLIET , IL, US) observed 0015 UTC 09 March 2021
Temperature: 14.8°C (59°F)
Dewpoint: 5.6°C (42°F) [RH = 54%]
Pressure (altimeter): 30.27 inches Hg (1025.1 mb)
Winds: calm
Visibility: 10 or more miles (16+ km)
Ceiling: 9000 feet AGL
Clouds: broken clouds at 9000 feet AGL
Weather: automated observation with no human augmentation;
there may or may not be significant weather present at this time

METAR text: KJOT 082355Z AUTO 00000KT 10SM BKN090 16/06 A3027 RMK AO2 T01550057 10203 20154
Conditions at: KJOT (JOLIET , IL, US) observed 2355 UTC 08 March 2021
Temperature: 15.5°C (60°F)
Dewpoint: 5.7°C (42°F) [RH = 52%]
Pressure (altimeter): 30.27 inches Hg (1025.1 mb)
Winds: calm
Visibility: 10 or more miles (16+ km)
Ceiling: 9000 feet AGL
Clouds: broken clouds at 9000 feet AGL
Weather: automated observation with no human augmentation;
there may or may not be significant weather present at this time